createdAt,value
2023-03-29T00:00:16.849Z,48.23
2023-03-29T00:02:48.800Z,47.34
2023-03-29T00:05:19.206Z,46.68
2023-03-29T00:07:47.010Z,46.97
2023-03-29T00:10:17.445Z,47.58
2023-03-29T00:12:45.215Z,48.35
2023-03-29T00:15:13.262Z,48.62
2023-03-29T00:17:41.014Z,48.34
2023-03-29T00:20:12.531Z,46.80
2023-03-29T00:22:44.530Z,46.45
2023-03-29T00:25:13.577Z,46.62
2023-03-29T00:27:41.701Z,46.29
2023-03-29T00:30:10.370Z,45.67
2023-03-29T00:32:38.596Z,45.87
2023-03-29T00:35:07.593Z,48.64
2023-03-29T00:37:35.690Z,46.87
2023-03-29T00:40:08.490Z,46.67
2023-03-29T00:42:36.468Z,46.43
2023-03-29T00:45:16.692Z,46.41
2023-03-29T00:47:57.507Z,45.45
2023-03-29T00:50:41.366Z,45.73
2023-03-29T00:53:15.242Z,45.41
2023-03-29T00:56:04.643Z,46.00
2023-03-29T00:58:39.521Z,47.35
2023-03-29T01:01:11.723Z,46.59
2023-03-29T01:04:08.624Z,46.50
2023-03-29T01:06:39.735Z,45.73
2023-03-29T01:09:12.753Z,46.44
2023-03-29T01:11:54.808Z,47.24
2023-03-29T01:14:35.312Z,45.27
2023-03-29T01:17:04.848Z,45.94
2023-03-29T01:19:39.483Z,46.04
2023-03-29T01:22:22.711Z,49.97
2023-03-29T01:25:05.479Z,47.43
2023-03-29T01:27:39.228Z,47.38
2023-03-29T01:30:14.516Z,47.44
2023-03-29T01:32:59.354Z,47.94
2023-03-29T01:35:48.580Z,46.54
2023-03-29T01:38:21.702Z,46.46
2023-03-29T01:40:49.528Z,46.16
2023-03-29T01:43:28.457Z,47.66
2023-03-29T01:46:21.736Z,49.69
2023-03-29T01:48:49.505Z,50.31
2023-03-29T01:51:39.693Z,49.80
2023-03-29T01:54:19.203Z,49.65
2023-03-29T01:56:50.272Z,49.39
2023-03-29T01:59:23.013Z,51.16
2023-03-29T02:01:55.574Z,50.67
2023-03-29T02:04:33.156Z,52.30
2023-03-29T02:07:03.330Z,51.68
2023-03-29T02:09:33.584Z,49.99
2023-03-29T02:12:07.373Z,51.33
2023-03-29T02:14:35.691Z,50.53
2023-03-29T02:17:19.827Z,49.72
2023-03-29T02:19:51.439Z,49.82
2023-03-29T02:22:26.060Z,50.63
2023-03-29T02:24:59.452Z,51.19
2023-03-29T02:27:29.759Z,51.22
2023-03-29T02:29:58.752Z,50.81
2023-03-29T02:33:17.322Z,51.28
2023-03-29T02:36:15.866Z,49.82
2023-03-29T02:38:44.191Z,49.57
2023-03-29T02:41:13.213Z,52.02
2023-03-29T02:43:42.356Z,48.97
2023-03-29T02:46:11.559Z,50.04
2023-03-29T02:48:40.963Z,50.55
2023-03-29T02:51:19.380Z,49.94
2023-03-29T02:54:19.655Z,51.25
2023-03-29T02:56:57.149Z,49.01
2023-03-29T02:59:25.095Z,48.90
2023-03-29T03:01:53.713Z,50.04
2023-03-29T03:04:22.406Z,48.76
2023-03-29T03:06:50.501Z,49.30
2023-03-29T03:09:18.709Z,50.69
2023-03-29T03:11:48.097Z,51.53
2023-03-29T03:14:16.832Z,49.65
2023-03-29T03:16:44.934Z,49.99
2023-03-29T03:19:12.745Z,50.11
2023-03-29T03:21:40.465Z,50.75
2023-03-29T03:24:08.386Z,51.38
2023-03-29T03:26:38.339Z,52.31
2023-03-29T03:29:06.951Z,51.63
2023-03-29T03:31:54.252Z,52.33
2023-03-29T03:34:42.600Z,52.75
2023-03-29T03:37:12.237Z,53.50
2023-03-29T03:39:40.448Z,54.30
2023-03-29T03:42:10.442Z,54.96
2023-03-29T03:44:43.292Z,54.04
2023-03-29T03:47:31.361Z,53.70
2023-03-29T03:50:11.948Z,52.98
2023-03-29T03:52:40.114Z,53.20
2023-03-29T03:55:09.453Z,52.58
2023-03-29T03:57:48.082Z,56.56
2023-03-29T04:00:21.975Z,55.67
2023-03-29T04:03:02.488Z,54.72
2023-03-29T04:05:30.769Z,53.48
2023-03-29T04:07:58.504Z,53.48
2023-03-29T04:10:56.988Z,51.14
2023-03-29T04:13:30.280Z,52.15
2023-03-29T04:16:16.693Z,52.36
2023-03-29T04:18:45.151Z,51.27
2023-03-29T04:21:13.495Z,51.32
2023-03-29T04:23:43.082Z,49.59
2023-03-29T04:26:12.411Z,52.15
2023-03-29T04:29:03.017Z,51.20
2023-03-29T04:31:46.155Z,49.55
2023-03-29T04:34:22.899Z,49.33
2023-03-29T04:36:54.374Z,48.85
2023-03-29T04:39:32.172Z,49.09
2023-03-29T04:42:00.853Z,49.66
2023-03-29T04:44:30.641Z,49.68
2023-03-29T04:47:00.858Z,49.63
2023-03-29T04:49:38.123Z,48.90
2023-03-29T04:52:11.949Z,49.01
2023-03-29T04:54:39.864Z,48.57
2023-03-29T04:57:25.352Z,48.41
2023-03-29T05:00:00.968Z,48.18
2023-03-29T05:02:48.813Z,46.39
2023-03-29T05:05:16.772Z,47.39
2023-03-29T05:07:46.668Z,48.35
2023-03-29T05:10:16.373Z,49.38
2023-03-29T05:12:44.971Z,49.28
2023-03-29T05:15:13.581Z,47.55
2023-03-29T05:17:42.459Z,47.99
2023-03-29T05:20:13.382Z,48.88
2023-03-29T05:22:44.098Z,48.02
2023-03-29T05:25:19.798Z,48.33
2023-03-29T05:27:47.867Z,47.37
2023-03-29T05:30:15.990Z,48.37
2023-03-29T05:32:53.176Z,48.20
2023-03-29T05:35:26.441Z,47.38
2023-03-29T05:37:56.519Z,48.81
2023-03-29T05:40:26.376Z,49.47
2023-03-29T05:43:27.564Z,48.82
2023-03-29T05:45:56.458Z,49.35
2023-03-29T05:48:26.020Z,49.16
2023-03-29T05:50:56.440Z,48.44
2023-03-29T05:53:26.558Z,48.64
2023-03-29T05:55:55.639Z,48.62
2023-03-29T05:58:26.738Z,48.54
2023-03-29T06:00:55.429Z,48.58
2023-03-29T06:03:43.892Z,48.26
2023-03-29T06:06:11.894Z,47.50
2023-03-29T06:08:39.756Z,47.55
2023-03-29T06:11:24.495Z,47.62
2023-03-29T06:14:19.694Z,48.40
2023-03-29T06:16:55.166Z,47.69
2023-03-29T06:19:23.348Z,47.90
2023-03-29T06:21:53.336Z,47.38
2023-03-29T06:24:25.248Z,47.28
2023-03-29T06:27:00.371Z,46.68
2023-03-29T06:29:28.504Z,46.61
2023-03-29T06:31:57.392Z,46.06
2023-03-29T06:34:45.617Z,45.30
2023-03-29T06:37:49.595Z,45.60
2023-03-29T06:40:25.609Z,45.57
2023-03-29T06:42:59.494Z,45.32
2023-03-29T06:45:40.124Z,43.83
2023-03-29T06:48:14.412Z,44.26
2023-03-29T06:50:42.594Z,43.67
2023-03-29T06:53:12.235Z,43.59
2023-03-29T06:55:41.794Z,42.64
2023-03-29T06:58:39.288Z,41.99
2023-03-29T07:01:20.804Z,41.79
2023-03-29T07:03:54.942Z,41.50
2023-03-29T07:06:29.783Z,41.51
2023-03-29T07:09:00.729Z,41.91
2023-03-29T07:11:43.545Z,41.07
2023-03-29T07:14:28.741Z,40.98
2023-03-29T07:16:58.653Z,39.99
2023-03-29T07:19:34.322Z,40.07
2023-03-29T07:22:08.356Z,39.76
2023-03-29T07:24:45.912Z,39.66
2023-03-29T07:27:14.855Z,39.59
2023-03-29T07:29:43.348Z,40.03
2023-03-29T07:32:11.520Z,38.76
2023-03-29T07:34:42.320Z,39.17
2023-03-29T07:37:15.586Z,38.78
2023-03-29T07:39:45.695Z,37.99
2023-03-29T07:42:29.210Z,40.12
2023-03-29T07:44:58.772Z,37.39
2023-03-29T07:47:33.171Z,38.84
2023-03-29T07:50:01.630Z,38.19
2023-03-29T07:52:30.406Z,38.61
2023-03-29T07:54:59.966Z,38.85
2023-03-29T07:57:38.437Z,39.32
2023-03-29T08:00:11.764Z,38.52
2023-03-29T08:02:44.876Z,38.83
2023-03-29T08:05:15.450Z,38.87
2023-03-29T08:07:52.838Z,38.57
2023-03-29T08:10:42.181Z,39.22
2023-03-29T08:13:28.625Z,38.75
2023-03-29T08:16:14.813Z,38.65
2023-03-29T08:18:50.529Z,37.93
2023-03-29T08:21:20.550Z,39.03
2023-03-29T08:23:50.634Z,39.11
2023-03-29T08:26:26.881Z,38.82
2023-03-29T08:28:56.918Z,38.38
2023-03-29T08:31:27.433Z,38.81
2023-03-29T08:33:55.538Z,39.20
2023-03-29T08:36:40.698Z,38.94
2023-03-29T08:39:16.898Z,38.71
2023-03-29T08:42:07.670Z,38.66
2023-03-29T08:45:05.335Z,38.80
2023-03-29T08:47:39.110Z,38.83
2023-03-29T08:50:11.159Z,39.68
2023-03-29T08:52:49.539Z,38.73
2023-03-29T08:55:42.829Z,40.80
2023-03-29T08:58:35.055Z,38.74
2023-03-29T09:01:08.855Z,39.21
2023-03-29T09:04:00.386Z,38.92
2023-03-29T09:06:41.973Z,38.47
2023-03-29T09:09:22.284Z,38.36
2023-03-29T09:12:35.755Z,38.50
2023-03-29T09:15:14.709Z,39.26
2023-03-29T09:18:11.493Z,38.75
2023-03-29T09:20:49.985Z,39.02
2023-03-29T09:23:52.794Z,39.50
2023-03-29T09:26:45.902Z,39.21
2023-03-29T09:29:56.722Z,39.71
2023-03-29T09:33:03.247Z,39.37
2023-03-29T09:35:54.807Z,37.81
2023-03-29T09:38:23.072Z,37.82
2023-03-29T09:40:57.465Z,38.14
2023-03-29T09:43:33.123Z,39.28
2023-03-29T09:46:11.258Z,38.08
2023-03-29T09:48:41.437Z,38.98
2023-03-29T09:51:13.099Z,37.54
2023-03-29T09:53:41.750Z,37.86
2023-03-29T09:56:19.208Z,37.54
2023-03-29T09:58:50.500Z,38.53
2023-03-29T10:01:20.490Z,38.07
2023-03-29T10:03:53.619Z,38.08
2023-03-29T10:06:25.724Z,38.57
2023-03-29T10:09:02.482Z,38.66
2023-03-29T10:11:39.149Z,38.10
2023-03-29T10:14:18.497Z,38.83
2023-03-29T10:16:46.858Z,37.84
2023-03-29T10:19:34.965Z,37.51
2023-03-29T10:22:07.774Z,37.20
2023-03-29T10:24:35.697Z,36.78
2023-03-29T10:27:11.836Z,37.27
2023-03-29T10:29:43.476Z,38.16
2023-03-29T10:32:27.893Z,38.68
2023-03-29T10:34:59.842Z,38.12
2023-03-29T10:37:28.931Z,38.64
2023-03-29T10:39:56.875Z,39.68
2023-03-29T10:42:26.013Z,39.59
2023-03-29T10:44:59.449Z,38.48
2023-03-29T10:47:31.789Z,38.74
2023-03-29T10:49:59.588Z,38.04
2023-03-29T10:52:30.190Z,39.08
2023-03-29T10:54:59.459Z,38.24
2023-03-29T10:57:45.837Z,38.31
2023-03-29T11:00:37.311Z,38.44
2023-03-29T11:03:14.268Z,39.08
2023-03-29T11:05:49.540Z,38.61
2023-03-29T11:08:32.220Z,38.59
2023-03-29T11:11:18.922Z,38.93
2023-03-29T11:14:09.152Z,38.53
2023-03-29T11:16:56.917Z,39.04
2023-03-29T11:19:50.788Z,39.10
2023-03-29T11:22:21.507Z,38.85
2023-03-29T11:25:01.225Z,38.49
2023-03-29T11:27:34.023Z,38.66
2023-03-29T11:30:15.929Z,38.90
2023-03-29T11:33:13.177Z,39.32
2023-03-29T11:36:02.774Z,39.87
2023-03-29T11:38:45.227Z,39.36
2023-03-29T11:41:19.867Z,39.85
2023-03-29T11:43:56.900Z,39.20
2023-03-29T11:46:40.445Z,39.02
2023-03-29T11:49:15.062Z,39.00
2023-03-29T11:51:53.740Z,40.10
2023-03-29T11:54:47.561Z,38.38
2023-03-29T11:57:44.309Z,38.76
2023-03-29T12:00:16.277Z,38.83
2023-03-29T12:02:58.816Z,38.56
2023-03-29T12:05:36.170Z,37.13
2023-03-29T12:08:06.382Z,37.01
2023-03-29T12:10:46.558Z,36.74
2023-03-29T12:13:24.748Z,37.06
2023-03-29T12:16:06.039Z,36.71
2023-03-29T12:18:41.141Z,36.37
2023-03-29T12:21:20.126Z,35.45
2023-03-29T12:23:49.625Z,35.66
2023-03-29T12:26:49.805Z,35.52
2023-03-29T12:29:39.536Z,35.36
2023-03-29T12:32:16.505Z,35.70
2023-03-29T12:35:05.421Z,35.29
2023-03-29T12:38:00.721Z,35.01
2023-03-29T12:41:02.341Z,35.97
2023-03-29T12:43:49.579Z,36.30
2023-03-29T12:46:36.734Z,36.06
2023-03-29T12:49:21.084Z,35.52
2023-03-29T12:51:49.260Z,35.03
2023-03-29T12:54:21.952Z,35.11
2023-03-29T12:56:52.874Z,35.13
2023-03-29T12:59:44.240Z,35.45
2023-03-29T13:02:15.220Z,35.99
2023-03-29T13:04:43.253Z,35.57
2023-03-29T13:07:15.287Z,36.67
2023-03-29T13:09:52.193Z,36.06
2023-03-29T13:12:23.037Z,35.76
2023-03-29T13:14:58.065Z,36.29
2023-03-29T13:17:53.559Z,36.72
2023-03-29T13:20:40.290Z,35.70
2023-03-29T13:23:42.419Z,36.06
2023-03-29T13:26:35.669Z,35.89
2023-03-29T13:29:37.315Z,35.13
2023-03-29T13:32:27.651Z,34.25
2023-03-29T13:35:31.036Z,35.04
2023-03-29T13:38:05.361Z,34.96
2023-03-29T13:40:44.153Z,34.49
2023-03-29T13:43:20.848Z,33.71
2023-03-29T13:45:58.128Z,32.91
2023-03-29T13:48:49.122Z,32.81
2023-03-29T13:51:28.238Z,33.44
2023-03-29T13:53:58.550Z,33.75
2023-03-29T13:56:33.105Z,34.28
2023-03-29T13:59:15.819Z,33.97
2023-03-29T14:01:53.598Z,32.88
2023-03-29T14:04:25.948Z,33.63
2023-03-29T14:07:03.882Z,34.21
2023-03-29T14:09:36.186Z,32.80
2023-03-29T14:12:05.024Z,32.09
2023-03-29T14:14:33.255Z,32.31
2023-03-29T14:17:02.880Z,32.08
2023-03-29T14:19:33.221Z,32.30
2023-03-29T14:22:02.667Z,32.00
2023-03-29T14:24:40.417Z,32.25
2023-03-29T14:27:11.582Z,33.32
2023-03-29T14:29:39.721Z,33.11
2023-03-29T14:32:17.010Z,32.21
2023-03-29T14:34:48.950Z,33.61
2023-03-29T14:37:28.706Z,32.57
2023-03-29T14:39:58.739Z,32.33
2023-03-29T14:42:28.798Z,33.21
2023-03-29T14:45:08.065Z,33.83
2023-03-29T14:47:37.104Z,33.79
2023-03-29T14:50:06.367Z,33.40
2023-03-29T14:52:35.108Z,34.68
2023-03-29T14:55:04.307Z,33.64
2023-03-29T14:57:36.760Z,34.25
2023-03-29T15:00:19.015Z,34.95
2023-03-29T15:02:54.977Z,34.82
2023-03-29T15:05:26.517Z,35.50
2023-03-29T15:07:56.409Z,35.65
2023-03-29T15:10:28.434Z,36.16
2023-03-29T15:12:57.330Z,36.25
2023-03-29T15:15:27.302Z,36.93
2023-03-29T15:17:58.545Z,37.61
2023-03-29T15:20:30.141Z,37.56
2023-03-29T15:23:16.153Z,37.96
2023-03-29T15:26:15.342Z,38.28
2023-03-29T15:29:00.681Z,38.65
2023-03-29T15:31:40.584Z,38.75
2023-03-29T15:34:12.305Z,38.49
2023-03-29T15:36:48.312Z,39.66
2023-03-29T15:39:18.126Z,39.73
2023-03-29T15:41:52.673Z,39.70
2023-03-29T15:44:29.229Z,40.27
2023-03-29T15:46:58.552Z,40.28
2023-03-29T15:49:27.354Z,39.86
2023-03-29T15:51:55.311Z,40.22
2023-03-29T15:54:25.000Z,40.42
2023-03-29T15:57:03.689Z,40.45
2023-03-29T15:59:32.177Z,40.76
2023-03-29T16:02:00.610Z,40.64
2023-03-29T16:04:29.188Z,40.94
2023-03-29T16:06:57.889Z,40.97
2023-03-29T16:09:30.476Z,40.94
2023-03-29T16:12:01.467Z,42.15
2023-03-29T16:14:31.765Z,41.97
2023-03-29T16:17:02.677Z,41.87
2023-03-29T16:19:33.105Z,42.24
2023-03-29T16:22:08.944Z,41.68
2023-03-29T16:24:37.431Z,41.61
2023-03-29T16:27:05.644Z,42.03
2023-03-29T16:29:36.060Z,42.58
2023-03-29T16:32:05.477Z,42.05
2023-03-29T16:34:36.137Z,42.26
2023-03-29T16:37:04.083Z,42.22
2023-03-29T16:39:31.971Z,42.81
2023-03-29T16:42:00.546Z,42.60
2023-03-29T16:44:29.211Z,42.70
2023-03-29T16:47:00.154Z,43.44
2023-03-29T16:49:28.981Z,43.07
2023-03-29T16:51:57.339Z,43.60
2023-03-29T16:54:26.000Z,43.58
2023-03-29T16:56:53.981Z,43.87
2023-03-29T16:59:22.052Z,44.43
2023-03-29T17:01:50.831Z,44.25
2023-03-29T17:04:19.593Z,45.18
2023-03-29T17:06:47.885Z,44.65
2023-03-29T17:09:17.769Z,44.83
2023-03-29T17:11:47.876Z,45.19
2023-03-29T17:14:15.955Z,45.52
2023-03-29T17:16:43.963Z,46.11
2023-03-29T17:19:12.680Z,45.96
2023-03-29T17:21:41.301Z,46.06
2023-03-29T17:24:10.127Z,46.35
2023-03-29T17:26:38.493Z,46.71
2023-03-29T17:29:07.729Z,47.38
2023-03-29T17:31:36.798Z,47.47
2023-03-29T17:34:04.663Z,47.27
2023-03-29T17:36:33.852Z,47.63
2023-03-29T17:39:02.976Z,47.72
2023-03-29T17:41:31.428Z,47.69
2023-03-29T17:43:59.401Z,48.42
2023-03-29T17:46:27.408Z,48.47
2023-03-29T17:48:56.225Z,48.36
2023-03-29T17:51:24.178Z,48.63
2023-03-29T17:53:52.427Z,49.32
2023-03-29T17:56:20.728Z,49.51
2023-03-29T17:58:49.489Z,50.02
2023-03-29T18:01:21.374Z,50.14
2023-03-29T18:03:49.370Z,50.16
2023-03-29T18:06:20.480Z,50.83
2023-03-29T18:08:48.632Z,50.90
2023-03-29T18:11:25.045Z,51.45
2023-03-29T18:13:58.437Z,51.98
2023-03-29T18:16:27.988Z,51.81
2023-03-29T18:18:55.952Z,51.98
2023-03-29T18:21:26.159Z,52.25
2023-03-29T18:23:56.648Z,52.72
2023-03-29T18:26:25.328Z,52.84
2023-03-29T18:28:53.525Z,52.54
2023-03-29T18:31:22.399Z,51.73
2023-03-29T18:33:50.687Z,52.20
2023-03-29T18:36:18.732Z,53.04
2023-03-29T18:38:46.595Z,52.69
2023-03-29T18:41:14.500Z,53.00
2023-03-29T18:43:43.372Z,53.20
2023-03-29T18:46:11.396Z,52.75
2023-03-29T18:48:39.366Z,52.42
2023-03-29T18:51:08.657Z,52.93
2023-03-29T18:53:37.912Z,53.08
2023-03-29T18:56:06.770Z,52.60
2023-03-29T18:58:35.034Z,53.96
2023-03-29T19:01:05.368Z,53.26
2023-03-29T19:03:34.987Z,52.85
2023-03-29T19:06:03.706Z,52.76
2023-03-29T19:08:33.099Z,52.55
2023-03-29T19:11:03.971Z,53.40
2023-03-29T19:13:31.901Z,53.64
2023-03-29T19:15:59.766Z,53.52
2023-03-29T19:18:27.821Z,54.90
2023-03-29T19:20:56.482Z,54.22
2023-03-29T19:23:27.332Z,54.81
2023-03-29T19:25:57.840Z,55.15
2023-03-29T19:28:27.492Z,54.50
2023-03-29T19:30:56.842Z,54.71
2023-03-29T19:33:24.686Z,55.09
2023-03-29T19:35:52.685Z,54.63
2023-03-29T19:38:21.585Z,54.97
2023-03-29T19:40:50.630Z,55.65
2023-03-29T19:43:18.741Z,56.27
2023-03-29T19:45:49.877Z,57.09
2023-03-29T19:48:23.485Z,57.00
2023-03-29T19:50:52.172Z,57.14
2023-03-29T19:53:20.063Z,57.21
2023-03-29T19:55:49.899Z,56.55
2023-03-29T19:58:17.922Z,57.03
2023-03-29T20:00:46.733Z,58.24
2023-03-29T20:03:15.818Z,57.38
2023-03-29T20:05:43.844Z,58.07
2023-03-29T20:08:11.679Z,58.80
2023-03-29T20:10:42.008Z,59.86
2023-03-29T20:13:09.936Z,60.04
2023-03-29T20:15:37.800Z,59.27
2023-03-29T20:18:06.103Z,59.94
2023-03-29T20:20:35.809Z,59.66
2023-03-29T20:23:05.285Z,60.27
2023-03-29T20:25:36.322Z,59.96
2023-03-29T20:28:04.981Z,60.20
2023-03-29T20:30:32.864Z,60.54
2023-03-29T20:33:01.057Z,61.55
2023-03-29T20:35:29.080Z,61.03
2023-03-29T20:37:56.902Z,60.60
2023-03-29T20:40:24.898Z,61.48
2023-03-29T20:42:54.378Z,60.34
2023-03-29T20:45:22.141Z,60.29
2023-03-29T20:48:02.440Z,60.57
2023-03-29T20:50:30.424Z,59.29
2023-03-29T20:53:03.751Z,60.68
2023-03-29T20:55:33.521Z,61.29
2023-03-29T20:58:02.528Z,60.80
2023-03-29T21:00:33.700Z,59.84
2023-03-29T21:03:05.306Z,60.54
2023-03-29T21:05:34.024Z,60.36
2023-03-29T21:08:03.083Z,60.42
2023-03-29T21:10:31.645Z,60.15
2023-03-29T21:13:00.414Z,61.14
2023-03-29T21:15:30.841Z,60.96
2023-03-29T21:17:59.044Z,60.74
2023-03-29T21:20:27.911Z,61.20
2023-03-29T21:22:56.141Z,59.90
2023-03-29T21:25:23.891Z,61.07
2023-03-29T21:27:51.611Z,61.50
2023-03-29T21:30:19.538Z,60.82
2023-03-29T21:32:47.449Z,61.21
2023-03-29T21:35:15.734Z,61.55
2023-03-29T21:37:43.565Z,60.28
2023-03-29T21:40:12.736Z,61.42
2023-03-29T21:42:40.606Z,60.03
2023-03-29T21:45:09.293Z,60.44
2023-03-29T21:47:37.184Z,59.95
2023-03-29T21:50:05.554Z,59.08
2023-03-29T21:52:33.415Z,59.42
2023-03-29T21:55:01.242Z,59.10
2023-03-29T21:57:29.293Z,61.38
2023-03-29T21:59:57.227Z,60.43
2023-03-29T22:02:25.066Z,59.63
2023-03-29T22:04:52.978Z,60.78
2023-03-29T22:07:22.937Z,59.52
2023-03-29T22:09:50.732Z,59.20
2023-03-29T22:12:18.868Z,59.11
2023-03-29T22:14:49.786Z,60.05
2023-03-29T22:17:17.585Z,60.12
2023-03-29T22:19:45.531Z,61.58
2023-03-29T22:22:14.488Z,60.54
2023-03-29T22:24:42.592Z,60.14
2023-03-29T22:27:11.884Z,60.66
2023-03-29T22:29:39.975Z,60.41
2023-03-29T22:32:07.825Z,60.73
2023-03-29T22:34:35.853Z,61.13
2023-03-29T22:37:03.893Z,60.40
2023-03-29T22:39:35.489Z,60.06
2023-03-29T22:42:03.437Z,59.98
2023-03-29T22:44:31.405Z,60.20
2023-03-29T22:46:59.632Z,60.31
2023-03-29T22:49:27.463Z,59.72
2023-03-29T22:51:55.386Z,59.91
2023-03-29T22:54:23.171Z,61.46
2023-03-29T22:56:51.111Z,60.82
2023-03-29T22:59:19.052Z,61.26
2023-03-29T23:01:46.943Z,63.42
2023-03-29T23:04:14.944Z,60.01
2023-03-29T23:06:42.832Z,61.63
2023-03-29T23:09:11.239Z,62.42
2023-03-29T23:11:39.022Z,62.83
2023-03-29T23:14:07.770Z,62.36
2023-03-29T23:16:35.585Z,63.86
2023-03-29T23:19:03.532Z,62.96
2023-03-29T23:21:31.329Z,63.02
2023-03-29T23:23:59.339Z,64.17
2023-03-29T23:26:28.045Z,62.95
2023-03-29T23:28:57.715Z,63.10
2023-03-29T23:31:25.560Z,62.71
2023-03-29T23:33:53.453Z,63.08
2023-03-29T23:36:27.250Z,62.30
2023-03-29T23:38:55.043Z,63.62
2023-03-29T23:41:23.097Z,63.02
2023-03-29T23:43:52.370Z,63.02
2023-03-29T23:46:21.535Z,63.43
2023-03-29T23:48:50.926Z,63.80
2023-03-29T23:51:23.389Z,63.74
2023-03-29T23:53:51.899Z,63.68
2023-03-29T23:56:21.518Z,65.06
2023-03-29T23:58:49.591Z,64.42
